createdAt,value
2023-03-04T00:02:16.957Z,47.70
2023-03-04T00:04:43.865Z,48.30
2023-03-04T00:09:37.477Z,51.88
2023-03-04T00:14:31.201Z,45.03
2023-03-04T00:19:24.761Z,48.28
2023-03-04T00:24:18.269Z,48.83
2023-03-04T00:29:11.803Z,50.22
2023-03-04T00:34:05.440Z,54.97
2023-03-04T00:38:58.953Z,49.42
2023-03-04T00:43:52.576Z,42.92
2023-03-04T00:46:19.449Z,52.33
2023-03-04T00:51:12.978Z,45.90
2023-03-04T00:56:07.105Z,44.00
2023-03-04T00:58:33.952Z,51.22
2023-03-04T01:03:31.511Z,46.42
2023-03-04T01:05:58.793Z,48.40
2023-03-04T01:08:26.767Z,48.87
2023-03-04T01:10:53.655Z,46.08
2023-03-04T01:15:47.186Z,42.70
2023-03-04T01:18:14.153Z,53.10
2023-03-04T01:20:41.016Z,51.70
2023-03-04T01:23:07.895Z,47.97
2023-03-04T01:28:01.508Z,51.42
2023-03-04T01:32:55.053Z,49.17
2023-03-04T01:37:48.616Z,53.87
2023-03-04T01:42:42.294Z,50.03
2023-03-04T01:45:13.383Z,47.60
2023-03-04T01:47:40.659Z,47.42
2023-03-04T01:50:12.252Z,55.12
2023-03-04T01:52:39.848Z,46.20
2023-03-04T01:55:15.594Z,51.85
2023-03-04T01:57:43.487Z,46.37
2023-03-04T02:00:26.176Z,49.85
2023-03-04T02:02:55.858Z,49.13
2023-03-04T02:05:23.181Z,47.20
2023-03-04T02:07:50.815Z,55.53
2023-03-04T02:10:18.004Z,52.03
2023-03-04T02:12:45.445Z,51.70
2023-03-04T02:15:12.717Z,49.45
2023-03-04T02:17:39.921Z,50.67
2023-03-04T02:20:43.795Z,57.03
2023-03-04T02:23:16.460Z,52.97
2023-03-04T02:25:51.194Z,54.60
2023-03-04T02:28:18.131Z,54.65
2023-03-04T02:33:17.424Z,52.95
2023-03-04T02:35:44.611Z,57.17
2023-03-04T02:38:12.437Z,53.67
2023-03-04T02:40:40.771Z,49.83
2023-03-04T02:43:10.729Z,59.83
2023-03-04T02:45:47.738Z,56.92
2023-03-04T02:48:18.869Z,63.85
2023-03-04T02:50:48.475Z,60.55
2023-03-04T02:53:15.728Z,56.63
2023-03-04T02:55:43.808Z,60.00
2023-03-04T02:58:11.171Z,60.38
2023-03-04T03:00:38.196Z,57.33
2023-03-04T03:03:05.684Z,57.75
2023-03-04T03:05:34.338Z,59.10
2023-03-04T03:08:02.271Z,67.55
2023-03-04T03:10:29.233Z,57.08
2023-03-04T03:12:56.429Z,62.03
2023-03-04T03:15:23.449Z,63.05
2023-03-04T03:17:50.380Z,68.82
2023-03-04T03:20:17.663Z,64.82
2023-03-04T03:22:44.656Z,63.72
2023-03-04T03:25:12.935Z,60.38
2023-03-04T03:27:39.919Z,62.08
2023-03-04T03:30:08.306Z,65.97
2023-03-04T03:32:35.202Z,63.38
2023-03-04T03:35:02.359Z,70.25
2023-03-04T03:37:29.231Z,60.25
2023-03-04T03:42:22.870Z,61.47
2023-03-04T03:44:50.452Z,57.92
2023-03-04T03:47:17.406Z,54.90
2023-03-04T03:49:44.305Z,58.17
2023-03-04T03:54:38.361Z,58.15
2023-03-04T03:57:05.296Z,57.05
2023-03-04T03:59:32.390Z,56.75
2023-03-04T04:01:59.362Z,59.00
2023-03-04T04:04:26.351Z,68.43
2023-03-04T04:09:20.990Z,56.37
2023-03-04T04:11:47.882Z,57.90
2023-03-04T04:16:41.678Z,61.53
2023-03-04T04:21:35.232Z,50.10
2023-03-04T04:26:28.782Z,46.05
2023-03-04T04:31:22.371Z,48.75
2023-03-04T04:36:16.664Z,47.45
2023-03-04T04:38:43.885Z,41.42
2023-03-04T04:41:20.651Z,41.92
2023-03-04T04:43:47.918Z,35.55
2023-03-04T04:46:15.940Z,38.08
2023-03-04T04:48:44.976Z,38.25
2023-03-04T04:51:12.157Z,36.97
2023-03-04T04:53:39.287Z,39.58
2023-03-04T04:56:17.779Z,37.25
2023-03-04T04:58:44.940Z,37.90
2023-03-04T05:01:12.273Z,35.72
2023-03-04T05:03:39.963Z,35.65
2023-03-04T05:06:08.514Z,30.12
2023-03-04T05:08:35.945Z,30.08
2023-03-04T05:11:04.818Z,28.35
2023-03-04T05:13:32.163Z,30.08
2023-03-04T05:15:59.475Z,28.17
2023-03-04T05:18:27.809Z,25.23
2023-03-04T05:20:56.348Z,23.23
2023-03-04T05:23:24.217Z,27.20
2023-03-04T05:25:51.402Z,25.60
2023-03-04T05:28:18.672Z,25.80
2023-03-04T05:30:46.063Z,28.55
2023-03-04T05:33:14.841Z,22.52
2023-03-04T05:35:42.733Z,25.77
2023-03-04T05:38:11.419Z,23.55
2023-03-04T05:40:39.103Z,22.58
2023-03-04T05:43:06.033Z,25.50
2023-03-04T05:45:32.964Z,28.27
2023-03-04T05:50:27.035Z,27.77
2023-03-04T05:52:53.950Z,30.60
2023-03-04T05:55:20.910Z,29.63
2023-03-04T05:57:48.102Z,30.00
2023-03-04T06:00:17.261Z,30.10
2023-03-04T06:02:44.704Z,33.08
2023-03-04T06:05:13.465Z,34.05
2023-03-04T06:07:40.402Z,32.53
2023-03-04T06:10:07.871Z,24.55
2023-03-04T06:12:34.723Z,27.90
2023-03-04T06:17:30.546Z,25.58
2023-03-04T06:19:57.415Z,32.22
2023-03-04T06:22:24.308Z,27.05
2023-03-04T06:24:51.150Z,28.83
2023-03-04T06:29:44.848Z,25.67
2023-03-04T06:32:11.774Z,24.95
2023-03-04T06:34:38.687Z,28.70
2023-03-04T06:37:05.562Z,25.37
2023-03-04T06:39:33.049Z,27.05
2023-03-04T06:41:59.968Z,27.15
2023-03-04T06:44:26.861Z,29.75
2023-03-04T06:46:53.803Z,27.60
2023-03-04T06:49:20.767Z,28.42
2023-03-04T06:51:47.622Z,27.92
2023-03-04T06:54:14.462Z,28.95
2023-03-04T06:59:07.997Z,32.00
2023-03-04T07:01:35.345Z,31.92
2023-03-04T07:04:02.875Z,32.22
2023-03-04T07:06:30.073Z,30.45
2023-03-04T07:08:58.139Z,32.05
2023-03-04T07:11:25.721Z,29.20
2023-03-04T07:13:52.827Z,30.90
2023-03-04T07:16:21.979Z,34.70
2023-03-04T07:18:49.398Z,34.03
2023-03-04T07:21:17.035Z,33.15
2023-03-04T07:23:43.962Z,33.78
2023-03-04T07:26:11.120Z,35.08
2023-03-04T07:28:38.135Z,37.60
2023-03-04T07:31:20.072Z,35.95
2023-03-04T07:33:46.976Z,35.45
2023-03-04T07:36:15.092Z,36.20
2023-03-04T07:38:48.796Z,41.72
2023-03-04T07:41:16.370Z,38.47
2023-03-04T07:43:43.588Z,37.47
2023-03-04T07:46:11.145Z,40.28
2023-03-04T07:48:38.458Z,38.28
2023-03-04T07:51:10.879Z,37.40
2023-03-04T07:53:39.175Z,36.30
2023-03-04T07:56:07.410Z,45.08
2023-03-04T07:58:34.394Z,36.45
2023-03-04T08:01:01.248Z,38.35
2023-03-04T08:03:29.851Z,39.55
2023-03-04T08:05:56.891Z,39.58
2023-03-04T08:08:23.751Z,41.28
2023-03-04T08:10:50.681Z,41.33
2023-03-04T08:13:17.581Z,40.53
2023-03-04T08:15:44.464Z,40.38
2023-03-04T08:18:11.445Z,43.97
2023-03-04T08:20:38.388Z,40.17
2023-03-04T08:23:05.335Z,44.40
2023-03-04T08:25:32.211Z,44.33
2023-03-04T08:27:59.805Z,40.45
2023-03-04T08:30:26.715Z,40.08
2023-03-04T08:32:53.726Z,37.38
2023-03-04T08:35:20.736Z,43.03
2023-03-04T08:37:47.654Z,40.25
2023-03-04T08:40:14.800Z,39.97
2023-03-04T08:42:41.981Z,41.17
2023-03-04T08:45:10.014Z,40.72
2023-03-04T08:47:37.172Z,43.22
2023-03-04T08:50:05.517Z,41.33
2023-03-04T08:52:32.502Z,41.55
2023-03-04T08:54:59.580Z,48.25
2023-03-04T08:57:26.515Z,44.97
2023-03-04T08:59:53.380Z,40.15
2023-03-04T09:02:20.358Z,43.58
2023-03-04T09:04:47.238Z,41.28
2023-03-04T09:07:14.489Z,42.30
2023-03-04T09:09:41.553Z,40.53
2023-03-04T09:12:08.652Z,40.55
2023-03-04T09:14:36.104Z,41.10
2023-03-04T09:17:04.144Z,37.05
2023-03-04T09:19:31.075Z,38.80
2023-03-04T09:21:59.565Z,37.25
2023-03-04T09:24:27.040Z,36.03
2023-03-04T09:26:54.406Z,46.05
2023-03-04T09:29:22.262Z,37.35
2023-03-04T09:31:49.151Z,39.75
2023-03-04T09:34:16.099Z,39.85
2023-03-04T09:36:43.029Z,42.97
2023-03-04T09:39:09.994Z,45.78
2023-03-04T09:41:42.729Z,41.80
2023-03-04T09:44:27.459Z,40.75
2023-03-04T09:46:58.572Z,40.42
2023-03-04T09:49:26.113Z,42.55
2023-03-04T09:52:15.305Z,47.33
2023-03-04T09:55:17.673Z,48.33
2023-03-04T09:57:53.155Z,37.58
2023-03-04T10:00:24.485Z,51.45
2023-03-04T10:03:06.884Z,40.42
2023-03-04T10:05:56.524Z,40.63
2023-03-04T10:08:41.874Z,36.97
2023-03-04T10:11:24.041Z,41.30
2023-03-04T10:14:23.329Z,44.88
2023-03-04T10:16:54.412Z,41.42
2023-03-04T10:19:52.514Z,39.53
2023-03-04T10:22:33.262Z,38.95
2023-03-04T10:25:22.332Z,39.95
2023-03-04T10:28:09.617Z,41.55
2023-03-04T10:30:51.561Z,37.92
2023-03-04T10:33:21.169Z,40.75
2023-03-04T10:36:07.053Z,41.40
2023-03-04T10:38:39.518Z,41.40
2023-03-04T10:41:21.216Z,44.35
2023-03-04T10:44:02.276Z,41.80
2023-03-04T10:46:30.206Z,42.08
2023-03-04T10:48:58.115Z,48.33
2023-03-04T10:51:27.853Z,47.13
2023-03-04T10:54:00.129Z,41.25
2023-03-04T10:56:45.647Z,46.90
2023-03-04T10:59:31.747Z,40.12
2023-03-04T11:02:00.113Z,54.55
2023-03-04T11:04:32.264Z,40.90
2023-03-04T11:06:59.149Z,42.72
2023-03-04T11:09:29.134Z,46.03
2023-03-04T11:11:59.668Z,40.78
2023-03-04T11:14:40.543Z,36.40
2023-03-04T11:17:50.426Z,39.40
2023-03-04T11:20:29.451Z,42.28
2023-03-04T11:22:58.169Z,39.75
2023-03-04T11:25:28.249Z,35.97
2023-03-04T11:28:01.135Z,39.33
2023-03-04T11:31:07.805Z,38.75
2023-03-04T11:33:56.179Z,35.53
2023-03-04T11:36:41.310Z,38.47
2023-03-04T11:39:20.438Z,39.92
2023-03-04T11:41:53.374Z,39.90
2023-03-04T11:44:20.313Z,35.75
2023-03-04T11:47:06.400Z,38.17
2023-03-04T11:50:02.284Z,36.85
2023-03-04T11:52:38.416Z,35.55
2023-03-04T11:55:08.512Z,40.33
2023-03-04T11:58:16.552Z,37.13
2023-03-04T12:01:04.893Z,34.83
2023-03-04T12:03:41.495Z,36.50
2023-03-04T12:06:36.049Z,43.87
2023-03-04T12:09:37.132Z,37.30
2023-03-04T12:12:38.055Z,39.35
2023-03-04T12:15:17.242Z,41.95
2023-03-04T12:17:56.598Z,38.60
2023-03-04T12:20:58.928Z,38.30
2023-03-04T12:23:36.559Z,35.40
2023-03-04T12:26:25.184Z,41.22
2023-03-04T12:28:55.054Z,37.85
2023-03-04T12:31:35.090Z,40.45
2023-03-04T12:34:32.590Z,36.40
2023-03-04T12:37:26.354Z,38.88
2023-03-04T12:40:08.266Z,38.05
2023-03-04T12:42:35.050Z,36.33
2023-03-04T12:47:47.831Z,37.47
2023-03-04T12:50:31.766Z,36.95
2023-03-04T12:53:14.723Z,37.30
2023-03-04T12:55:45.078Z,38.97
2023-03-04T12:58:25.091Z,39.80
2023-03-04T13:00:57.674Z,41.17
2023-03-04T13:03:38.185Z,39.22
2023-03-04T13:06:31.634Z,41.25
2023-03-04T13:09:04.356Z,37.28
2023-03-04T13:11:33.923Z,37.97
2023-03-04T13:14:06.543Z,39.33
2023-03-04T13:16:43.892Z,39.17
2023-03-04T13:21:56.557Z,38.17
2023-03-04T13:24:46.454Z,37.45
2023-03-04T13:27:48.819Z,35.50
2023-03-04T13:30:34.663Z,38.92
2023-03-04T13:33:16.403Z,39.03
2023-03-04T13:36:02.094Z,39.97
2023-03-04T13:38:31.009Z,40.15
2023-03-04T13:41:17.349Z,37.58
2023-03-04T13:43:45.970Z,33.70
2023-03-04T13:46:18.985Z,37.85
2023-03-04T13:48:51.825Z,37.92
2023-03-04T13:51:31.882Z,37.03
2023-03-04T13:53:58.696Z,40.72
2023-03-04T13:59:08.472Z,39.38
2023-03-04T14:01:41.318Z,39.25
2023-03-04T14:04:18.008Z,36.45
2023-03-04T14:06:48.873Z,39.22
2023-03-04T14:09:27.712Z,36.13
2023-03-04T14:11:57.368Z,36.40
2023-03-04T14:14:30.236Z,37.80
2023-03-04T14:17:00.601Z,37.30
2023-03-04T14:19:33.618Z,36.80
2023-03-04T14:22:01.266Z,34.75
2023-03-04T14:24:30.895Z,35.53
2023-03-04T14:27:14.416Z,33.28
2023-03-04T14:29:41.300Z,38.70
2023-03-04T14:32:08.765Z,38.40
2023-03-04T14:34:38.446Z,36.40
2023-03-04T14:37:20.268Z,32.30
2023-03-04T14:39:50.507Z,34.80
2023-03-04T14:42:18.989Z,33.78
2023-03-04T14:44:50.214Z,35.90
2023-03-04T14:47:22.256Z,38.15
2023-03-04T14:49:49.616Z,33.40
2023-03-04T14:52:39.230Z,35.80
2023-03-04T14:55:15.174Z,32.55
2023-03-04T14:57:44.363Z,28.77
2023-03-04T15:00:20.537Z,26.75
2023-03-04T15:02:52.872Z,26.77
2023-03-04T15:05:31.913Z,26.77
2023-03-04T15:08:02.347Z,24.02
2023-03-04T15:10:35.008Z,24.70
2023-03-04T15:13:05.138Z,24.95
2023-03-04T15:15:40.093Z,22.52
2023-03-04T15:18:27.393Z,24.08
2023-03-04T15:21:15.529Z,23.17
2023-03-04T15:23:42.395Z,23.77
2023-03-04T15:26:10.729Z,25.85
2023-03-04T15:28:38.730Z,27.95
2023-03-04T15:31:06.250Z,23.98
2023-03-04T15:33:33.182Z,23.02
2023-03-04T15:36:02.050Z,20.25
2023-03-04T15:38:29.509Z,21.58
2023-03-04T15:40:59.735Z,20.30
2023-03-04T15:43:27.250Z,20.70
2023-03-04T15:45:54.363Z,21.90
2023-03-04T15:48:21.462Z,26.23
2023-03-04T15:50:56.770Z,22.50
2023-03-04T15:53:34.243Z,24.12
2023-03-04T15:56:02.236Z,22.30
2023-03-04T15:58:30.288Z,27.55
2023-03-04T16:00:57.168Z,24.17
2023-03-04T16:03:24.217Z,19.52
2023-03-04T16:05:52.838Z,19.67
2023-03-04T16:08:21.767Z,20.58
2023-03-04T16:10:49.020Z,22.48
2023-03-04T16:13:18.752Z,21.23
2023-03-04T16:15:46.040Z,19.50
2023-03-04T16:18:14.160Z,20.42
2023-03-04T16:20:43.654Z,21.65
2023-03-04T16:23:19.490Z,20.60
2023-03-04T16:25:47.919Z,18.50
2023-03-04T16:28:14.798Z,17.80
2023-03-04T16:30:41.938Z,19.27
2023-03-04T16:33:08.839Z,22.17
2023-03-04T16:35:37.344Z,20.70
2023-03-04T16:38:06.612Z,19.40
2023-03-04T16:40:33.609Z,21.42
2023-03-04T16:43:00.491Z,17.52
2023-03-04T16:45:30.463Z,19.30
2023-03-04T16:47:57.346Z,18.77
2023-03-04T16:50:27.544Z,20.27
2023-03-04T16:52:55.221Z,21.02
2023-03-04T16:55:25.597Z,21.27
2023-03-04T16:57:53.192Z,22.65
2023-03-04T17:00:21.692Z,19.42
2023-03-04T17:02:56.287Z,21.48
2023-03-04T17:05:25.945Z,19.67
2023-03-04T17:07:52.815Z,21.15
2023-03-04T17:10:20.534Z,27.40
2023-03-04T17:12:47.564Z,22.92
2023-03-04T17:15:15.055Z,17.65
2023-03-04T17:17:43.212Z,22.02
2023-03-04T17:20:12.975Z,21.48
2023-03-04T17:22:40.083Z,24.05
2023-03-04T17:25:07.619Z,24.65
2023-03-04T17:27:34.510Z,21.73
2023-03-04T17:30:01.464Z,19.20
2023-03-04T17:32:28.705Z,23.17
2023-03-04T17:34:58.423Z,23.35
2023-03-04T17:37:25.583Z,22.52
2023-03-04T17:39:52.440Z,20.65
2023-03-04T17:44:46.259Z,20.67
2023-03-04T17:47:13.424Z,23.60
2023-03-04T17:49:40.308Z,21.00
2023-03-04T17:52:07.306Z,21.05
2023-03-04T17:54:36.169Z,23.23
2023-03-04T17:57:03.071Z,22.67
2023-03-04T17:59:29.909Z,21.42
2023-03-04T18:04:23.521Z,23.27
2023-03-04T18:09:17.070Z,23.05
2023-03-04T18:14:12.953Z,24.92
2023-03-04T18:16:40.359Z,23.15
2023-03-04T18:19:09.519Z,24.98
2023-03-04T18:21:36.948Z,24.48
2023-03-04T18:24:04.203Z,21.70
2023-03-04T18:26:31.122Z,24.05
2023-03-04T18:28:58.051Z,22.17
2023-03-04T18:31:30.275Z,20.90
2023-03-04T18:34:00.808Z,23.83
2023-03-04T18:36:27.871Z,22.98
2023-03-04T18:38:55.195Z,22.30
2023-03-04T18:41:22.041Z,27.55
2023-03-04T18:46:18.365Z,25.20
2023-03-04T18:48:53.137Z,19.50
2023-03-04T18:51:20.811Z,23.50
2023-03-04T18:53:48.024Z,25.70
2023-03-04T18:56:39.254Z,25.52
2023-03-04T18:59:16.812Z,25.77
2023-03-04T19:01:44.048Z,26.95
2023-03-04T19:04:11.484Z,25.33
2023-03-04T19:06:38.597Z,22.90
2023-03-04T19:09:06.761Z,26.42
2023-03-04T19:11:33.662Z,25.35
2023-03-04T19:14:00.536Z,23.85
2023-03-04T19:16:27.485Z,26.12
2023-03-04T19:18:54.422Z,22.87
2023-03-04T19:21:21.408Z,26.25
2023-03-04T19:23:48.275Z,27.60
2023-03-04T19:26:15.678Z,27.83
2023-03-04T19:28:42.905Z,28.23
2023-03-04T19:31:11.342Z,24.85
2023-03-04T19:33:39.421Z,24.52
2023-03-04T19:36:07.137Z,21.62
2023-03-04T19:38:34.466Z,19.50
2023-03-04T19:41:12.223Z,24.37
2023-03-04T19:43:39.689Z,22.33
2023-03-04T19:46:07.827Z,27.35
2023-03-04T19:48:36.419Z,22.92
2023-03-04T19:51:06.715Z,22.37
2023-03-04T19:53:34.854Z,20.73
2023-03-04T19:56:01.902Z,21.55
2023-03-04T19:58:28.748Z,23.55
2023-03-04T20:03:24.294Z,19.98
2023-03-04T20:05:51.235Z,15.90
2023-03-04T20:08:18.891Z,22.40
2023-03-04T20:10:45.904Z,21.45
2023-03-04T20:13:12.783Z,21.12
2023-03-04T20:15:42.969Z,19.48
2023-03-04T20:18:09.933Z,19.83
2023-03-04T20:20:39.128Z,22.48
2023-03-04T20:23:06.301Z,12.80
2023-03-04T20:25:33.186Z,20.12
2023-03-04T20:28:00.153Z,18.37
2023-03-04T20:30:27.045Z,19.52
2023-03-04T20:32:53.996Z,13.00
2023-03-04T20:35:20.965Z,16.23
2023-03-04T20:37:47.915Z,19.70
2023-03-04T20:40:14.781Z,15.35
2023-03-04T20:42:41.808Z,16.45
2023-03-04T20:45:09.040Z,14.57
2023-03-04T20:47:37.972Z,17.65
2023-03-04T20:50:06.721Z,15.70
2023-03-04T20:52:33.641Z,13.90
2023-03-04T20:55:00.525Z,13.27
2023-03-04T20:57:27.490Z,15.80
2023-03-04T20:59:54.354Z,16.87
2023-03-04T21:02:23.556Z,14.90
2023-03-04T21:04:50.494Z,14.23
2023-03-04T21:07:17.863Z,16.77
2023-03-04T21:09:45.290Z,18.80
2023-03-04T21:12:12.170Z,11.82
2023-03-04T21:14:39.876Z,18.87
2023-03-04T21:17:06.816Z,22.87
2023-03-04T21:19:36.614Z,14.10
2023-03-04T21:22:04.441Z,20.62
2023-03-04T21:24:33.425Z,17.42
2023-03-04T21:27:01.711Z,13.57
2023-03-04T21:29:28.730Z,16.48
2023-03-04T21:32:13.072Z,23.90
2023-03-04T21:34:52.397Z,16.95
2023-03-04T21:37:20.658Z,15.00
2023-03-04T21:39:47.690Z,15.85
2023-03-04T21:42:14.594Z,15.05
2023-03-04T21:44:50.556Z,12.82
2023-03-04T21:47:19.256Z,16.37
2023-03-04T21:49:46.582Z,14.73
2023-03-04T21:52:13.486Z,15.70
2023-03-04T21:54:40.406Z,14.32
2023-03-04T21:57:07.336Z,14.10
2023-03-04T21:59:34.251Z,15.20
2023-03-04T22:02:01.833Z,12.32
2023-03-04T22:04:28.755Z,17.00
2023-03-04T22:06:55.600Z,12.37
2023-03-04T22:09:22.577Z,15.70
2023-03-04T22:11:49.443Z,13.45
2023-03-04T22:14:16.357Z,13.30
2023-03-04T22:16:59.025Z,14.55
2023-03-04T22:19:28.441Z,17.40
2023-03-04T22:21:55.380Z,17.37
2023-03-04T22:24:22.515Z,14.20
2023-03-04T22:26:49.438Z,16.83
2023-03-04T22:29:16.343Z,15.10
2023-03-04T22:31:43.236Z,15.02
2023-03-04T22:34:12.914Z,14.15
2023-03-04T22:36:41.832Z,15.23
2023-03-04T22:39:10.893Z,12.75
2023-03-04T22:41:38.236Z,13.70
2023-03-04T22:44:08.915Z,13.88
2023-03-04T22:46:38.404Z,10.57
2023-03-04T22:49:09.645Z,12.45
2023-03-04T22:51:37.913Z,14.40
2023-03-04T22:54:04.882Z,10.13
2023-03-04T22:56:31.832Z,15.93
2023-03-04T22:58:58.897Z,14.15
2023-03-04T23:01:25.786Z,12.98
2023-03-04T23:03:53.217Z,13.38
2023-03-04T23:06:22.992Z,14.55
2023-03-04T23:08:51.033Z,13.18
2023-03-04T23:11:21.292Z,14.93
2023-03-04T23:13:49.284Z,12.98
2023-03-04T23:16:16.612Z,13.77
2023-03-04T23:18:46.675Z,14.32
2023-03-04T23:21:16.478Z,14.15
2023-03-04T23:23:43.388Z,14.18
2023-03-04T23:26:26.193Z,14.63
2023-03-04T23:28:55.825Z,12.63
2023-03-04T23:31:23.208Z,13.55
2023-03-04T23:33:50.265Z,12.88
2023-03-04T23:36:18.875Z,13.50
2023-03-04T23:38:47.696Z,14.02
2023-03-04T23:41:17.123Z,14.23
2023-03-04T23:43:45.370Z,11.90
2023-03-04T23:46:12.433Z,16.35
2023-03-04T23:48:40.808Z,12.07
2023-03-04T23:51:09.483Z,11.82
2023-03-04T23:53:39.098Z,10.38
2023-03-04T23:56:13.202Z,12.20
2023-03-04T23:58:40.967Z,10.93
